Time;durP1;ratioP1;P1;durP2;ratioP2;P2;SDS_P1;SDS_P2;PMS_P1;PMS_P2;Temp;Humidity;BMP_temperature;BMP_pressure;BME280_temperature;BME280_humidity;BME280_pressure;Samples;Min_cycle;Max_cycle;Signal;HPM_P1;HPM_P2
2023/07/27 00:02:02;;;;;;;260.63;146.52;;;;;;;15.01;100.00;99412.59;5060291;28;20107;-78
2023/07/27 00:04:27;;;;;;;255.10;144.55;;;;;;;14.95;100.00;99408.94;5058993;28;20055;-77
2023/07/27 00:06:53;;;;;;;246.95;141.73;;;;;;;15.07;100.00;99430.59;5059283;28;20039;-77
2023/07/27 00:09:19;;;;;;;254.18;144.55;;;;;;;15.12;100.00;99425.28;5075168;28;20521;-77
2023/07/27 00:11:45;;;;;;;246.13;141.00;;;;;;;15.11;100.00;99429.03;5041690;28;20024;-77
2023/07/27 00:14:10;;;;;;;255.20;144.80;;;;;;;15.03;100.00;99411.31;5058891;28;20544;-77
2023/07/27 00:16:36;;;;;;;257.35;145.55;;;;;;;15.05;100.00;99417.28;5058680;28;20059;-77
2023/07/27 00:19:02;;;;;;;261.17;146.88;;;;;;;15.11;100.00;99435.31;5041861;28;20032;-78
2023/07/27 00:21:27;;;;;;;253.23;143.80;;;;;;;15.01;100.00;99426.97;5074409;28;20140;-77
2023/07/27 00:23:53;;;;;;;250.93;143.15;;;;;;;15.12;100.00;99445.06;5041833;28;20490;-78
2023/07/27 00:26:18;;;;;;;261.98;147.10;;;;;;;15.12;100.00;99447.78;5074850;28;20379;-77
2023/07/27 00:28:44;;;;;;;262.70;147.52;;;;;;;15.10;100.00;99443.66;5054776;28;20044;-78
2023/07/27 00:31:10;;;;;;;263.85;148.02;;;;;;;15.06;100.00;99446.03;5038439;28;20032;-77
2023/07/27 00:33:35;;;;;;;264.77;148.23;;;;;;;15.06;100.00;99437.09;5022106;28;20100;-77
2023/07/27 00:36:01;;;;;;;269.92;150.13;;;;;;;15.07;100.00;99444.94;5038544;28;20044;-77
2023/07/27 00:38:27;;;;;;;265.67;148.63;;;;;;;15.08;100.00;99445.78;5024615;28;20441;-77
2023/07/27 00:40:53;;;;;;;265.85;148.55;;;;;;;15.04;100.00;99445.44;5074926;28;20035;-77
2023/07/27 00:43:18;;;;;;;264.67;148.20;;;;;;;15.08;100.00;99454.75;5058216;28;20033;-78
2023/07/27 00:45:45;;;;;;;265.08;148.30;;;;;;;15.08;100.00;99445.78;5074926;28;20029;-79
2023/07/27 00:48:11;;;;;;;269.00;149.23;;;;;;;15.02;100.00;99444.84;5056722;28;20501;-80
2023/07/27 00:50:37;;;;;;;262.92;147.57;;;;;;;15.07;100.00;99450.38;5021340;28;20033;-78
2023/07/27 00:53:05;;;;;;;265.02;148.35;;;;;;;15.02;100.00;99446.72;5055807;28;20455;-77
2023/07/27 00:55:30;;;;;;;263.65;148.00;;;;;;;15.02;100.00;99444.84;5038008;28;20029;-77
2023/07/27 00:57:57;;;;;;;265.48;148.50;;;;;;;15.03;100.00;99451.06;5054730;28;20093;-77
2023/07/27 01:00:23;;;;;;;263.80;148.10;;;;;;;15.11;100.00;99464.25;5039389;28;20049;-78
2023/07/27 01:02:49;;;;;;;262.67;147.52;;;;;;;15.08;100.00;99453.88;5041447;28;20375;-78
2023/07/27 01:05:16;;;;;;;262.25;147.25;;;;;;;14.93;100.00;99428.16;5058468;28;20119;-78
2023/07/27 01:07:41;;;;;;;258.35;145.63;;;;;;;15.09;100.00;99452.84;5041296;28;20033;-78
2023/07/27 01:10:07;;;;;;;263.02;147.70;;;;;;;15.11;100.00;99461.53;5040325;28;20036;-82
2023/07/27 01:12:48;;;;;;;264.38;148.48;;;;;;;15.13;100.00;99464.84;5057694;28;20421;-78
2023/07/27 01:15:16;;;;;;;248.50;142.50;;;;;;;15.13;100.00;99464.84;5057690;28;20036;-79
2023/07/27 01:17:52;;;;;;;236.35;137.32;;;;;;;15.11;100.00;99466.94;5041175;28;20045;-78
2023/07/27 01:20:21;;;;;;;256.25;145.25;;;;;;;15.09;100.00;99461.78;5057590;28;20036;-79
2023/07/27 01:23:14;;;;;;;264.17;148.63;;;;;;;15.04;100.00;99467.09;5074126;28;20035;-78
2023/07/27 01:26:21;;;;;;;265.02;149.15;;;;;;;15.03;100.00;99465.44;5057002;28;20048;-79
2023/07/27 01:29:17;;;;;;;267.98;150.48;;;;;;;15.03;100.00;99456.47;5074047;28;20025;-79
2023/07/27 01:31:43;;;;;;;276.27;153.32;;;;;;;14.98;100.00;99462.63;5040261;28;20448;-79
2023/07/27 01:34:31;;;;;;;274.65;152.77;;;;;;;15.01;100.00;99455.91;5057938;28;20036;-78
2023/07/27 01:37:09;;;;;;;275.80;153.10;;;;;;;14.95;100.00;99455.81;5057372;28;20059;-79
2023/07/27 01:39:40;;;;;;;272.17;151.60;;;;;;;14.94;100.00;99453.31;5040873;28;20056;-78
2023/07/27 01:42:11;;;;;;;271.98;151.55;;;;;;;14.99;100.00;99460.75;5056155;28;20029;-79
2023/07/27 01:44:37;;;;;;;263.67;148.13;;;;;;;14.99;100.00;99458.03;5040831;28;20071;-78
2023/07/27 01:47:03;;;;;;;264.98;149.00;;;;;;;14.95;100.00;99450.38;5073289;28;20029;-80
2023/07/27 01:49:29;;;;;;;264.02;148.43;;;;;;;14.93;100.00;99451.69;5057133;28;20059;-78
2023/07/27 01:51:56;;;;;;;256.73;145.57;;;;;;;14.96;100.00;99462.03;5073093;28;20494;-78
2023/07/27 01:54:21;;;;;;;263.50;148.32;;;;;;;14.88;100.00;99455.09;5073446;28;20093;-78
2023/07/27 01:56:47;;;;;;;263.15;148.18;;;;;;;14.86;100.00;99449.09;5073492;28;20033;-78
2023/07/27 01:59:13;;;;;;;261.90;147.80;;;;;;;14.73;100.00;99433.09;5053229;28;20029;-78
2023/07/27 02:01:42;;;;;;;260.08;147.10;;;;;;;14.90;100.00;99468.41;5052717;28;20033;-78
2023/07/27 02:04:09;;;;;;;261.77;147.65;;;;;;;14.75;100.00;99451.81;5053029;28;20029;-78
2023/07/27 02:06:35;;;;;;;255.95;145.45;;;;;;;14.84;100.00;99466.63;5020402;28;20036;-78
2023/07/27 02:09:00;;;;;;;257.05;145.90;;;;;;;14.83;100.00;99476.63;5061099;28;20024;-78
2023/07/27 02:11:26;;;;;;;264.60;148.75;;;;;;;14.82;100.00;99468.72;5072789;28;20058;-78
2023/07/27 02:14:01;;;;;;;267.27;150.05;;;;;;;14.83;100.00;99473.91;5056603;28;20036;-78
2023/07/27 02:16:41;;;;;;;268.77;150.50;;;;;;;14.54;100.00;99429.69;5057150;28;20188;-78
2023/07/27 02:19:07;;;;;;;261.55;147.68;;;;;;;14.79;100.00;99480.03;5072009;28;20475;-79
2023/07/27 02:21:35;;;;;;;261.67;147.95;;;;;;;14.78;100.00;99472.97;5056472;28;20032;-78
2023/07/27 02:24:01;;;;;;;265.50;149.30;;;;;;;14.71;100.00;99467.66;5052513;28;20048;-78
2023/07/27 02:26:27;;;;;;;266.67;149.95;;;;;;;14.69;100.00;99470.63;5020098;28;20499;-78
2023/07/27 02:29:00;;;;;;;267.63;150.18;;;;;;;14.68;100.00;99473.56;5036528;28;20090;-77
2023/07/27 02:31:26;;;;;;;264.00;148.43;;;;;;;14.73;100.00;99481.78;5020790;28;20506;-78
2023/07/27 02:33:52;;;;;;;259.08;146.75;;;;;;;14.71;100.00;99478.47;5052813;28;20041;-78
2023/07/27 02:36:17;;;;;;;258.75;146.82;;;;;;;14.75;100.00;99476.97;5069374;28;20025;-78
2023/07/27 02:38:43;;;;;;;260.75;147.52;;;;;;;14.66;100.00;99462.13;5041155;28;20047;-78
2023/07/27 02:41:10;;;;;;;256.85;146.05;;;;;;;14.74;100.00;99472.63;5073131;28;20032;-77
2023/07/27 02:43:36;;;;;;;260.73;147.63;;;;;;;14.69;100.00;99467.91;5072509;28;20080;-78
2023/07/27 02:46:01;;;;;;;268.50;150.80;;;;;;;14.66;100.00;99467.53;5072778;28;20036;-78
2023/07/27 02:48:27;;;;;;;274.38;152.05;;;;;;;14.69;100.00;99475.22;5071961;28;20039;-78
2023/07/27 02:50:53;;;;;;;271.85;151.80;;;;;;;14.62;100.00;99466.38;5035806;28;20041;-78
2023/07/27 02:53:18;;;;;;;269.67;150.80;;;;;;;14.51;100.00;99463.38;5019905;28;20083;-78
2023/07/27 02:55:58;;;;;;;268.92;150.73;;;;;;;14.60;100.00;99461.19;5019487;28;20490;-78
2023/07/27 02:58:24;;;;;;;266.90;149.90;;;;;;;14.56;100.00;99459.22;5022480;28;20040;-78
2023/07/27 03:00:54;;;;;;;269.80;151.02;;;;;;;14.56;100.00;99464.63;5035555;28;20036;-78
2023/07/27 03:03:20;;;;;;;270.55;151.57;;;;;;;14.59;100.00;99473.06;5052694;28;20071;-78
2023/07/27 03:05:45;;;;;;;268.80;151.05;;;;;;;14.51;100.00;99460.69;5036525;28;20061;-77
2023/07/27 03:08:11;;;;;;;268.92;150.77;;;;;;;14.41;100.00;99438.78;5021781;28;20493;-78
2023/07/27 03:10:38;;;;;;;269.33;151.23;;;;;;;14.53;100.00;99465.91;5055695;28;20040;-78
2023/07/27 03:13:04;;;;;;;265.50;149.45;;;;;;;14.52;100.00;99465.06;5073840;28;20031;-77
2023/07/27 03:15:30;;;;;;;267.77;150.38;;;;;;;14.56;100.00;99472.72;5060049;28;20387;-78
2023/07/27 03:17:55;;;;;;;263.38;148.32;;;;;;;14.58;100.00;99473.31;5059021;28;20475;-78
2023/07/27 03:20:21;;;;;;;262.58;148.43;;;;;;;14.54;100.00;99474.84;5059300;28;20032;-78
2023/07/27 03:22:46;;;;;;;259.80;147.60;;;;;;;14.54;100.00;99466.72;5076508;28;20386;-78
2023/07/27 03:25:12;;;;;;;261.60;147.77;;;;;;;14.56;100.00;99472.72;5059827;28;20030;-77
2023/07/27 03:27:37;;;;;;;268.30;150.60;;;;;;;14.54;100.00;99462.13;5059343;28;20441;-78
2023/07/27 03:30:03;;;;;;;243.38;141.23;;;;;;;14.57;100.00;99477.06;5075299;28;20033;-78
2023/07/27 03:32:29;;;;;;;262.27;148.02;;;;;;;14.59;100.00;99472.25;5076230;28;20112;-77
2023/07/27 03:34:55;;;;;;;265.83;150.23;;;;;;;14.52;100.00;99467.75;5075887;28;20406;-78
2023/07/27 03:37:21;;;;;;;269.77;151.50;;;;;;;14.57;100.00;99469.78;5077023;28;20066;-78
2023/07/27 03:39:46;;;;;;;264.48;149.50;;;;;;;14.51;100.00;99468.81;5075372;28;20395;-77
2023/07/27 03:42:12;;;;;;;265.50;149.63;;;;;;;14.51;100.00;99468.81;5059385;28;20040;-78
2023/07/27 03:44:38;;;;;;;270.48;151.98;;;;;;;14.50;100.00;99474.44;5075641;28;20082;-78
2023/07/27 03:47:04;;;;;;;275.58;153.52;;;;;;;14.48;100.00;99479.28;5039016;28;20041;-78
2023/07/27 03:49:30;;;;;;;272.30;152.68;;;;;;;14.42;100.00;99469.38;5072538;28;20518;-78
2023/07/27 03:51:55;;;;;;;273.02;152.50;;;;;;;14.42;100.00;99481.03;5056981;28;20033;-78
2023/07/27 03:54:21;;;;;;;275.88;153.45;;;;;;;14.36;100.00;99479.22;5055765;28;20037;-77
2023/07/27 03:56:46;;;;;;;272.15;152.13;;;;;;;14.31;100.00;99476.41;5024004;28;20072;-78
2023/07/27 03:59:12;;;;;;;272.58;152.95;;;;;;;14.23;100.00;99471.31;5059053;28;20081;-78
2023/07/27 04:01:38;;;;;;;207.13;126.55;;;;;;;14.26;100.00;99481.66;5074876;28;20491;-78
2023/07/27 04:04:04;;;;;;;197.52;122.85;;;;;;;14.16;100.00;99478.72;5075223;28;20101;-77
2023/07/27 04:06:29;;;;;;;206.93;126.63;;;;;;;14.07;100.00;99472.81;5058386;28;20133;-78
2023/07/27 04:08:55;;;;;;;202.35;124.90;;;;;;;14.12;100.00;99488.34;5042443;28;20040;-78
2023/07/27 04:11:20;;;;;;;199.73;123.95;;;;;;;14.16;100.00;99493.06;5059328;28;20048;-78
2023/07/27 04:13:46;;;;;;;201.00;124.35;;;;;;;14.18;100.00;99484.72;5075169;28;20103;-77
2023/07/27 04:16:11;;;;;;;205.68;126.07;;;;;;;14.25;100.00;99496.25;5058526;28;20467;-80
2023/07/27 04:18:37;;;;;;;212.57;129.02;;;;;;;14.24;100.00;99490.03;5058598;28;20123;-78
2023/07/27 04:21:02;;;;;;;237.48;138.82;;;;;;;14.32;100.00;99494.28;5042268;28;20039;-78
2023/07/27 04:23:28;;;;;;;263.48;148.82;;;;;;;14.20;100.00;99471.78;5042123;28;20036;-77
2023/07/27 04:25:54;;;;;;;266.48;150.63;;;;;;;14.23;100.00;99487.53;5057923;28;20032;-77
2023/07/27 04:28:19;;;;;;;198.95;123.70;;;;;;;14.27;100.00;99497.69;5057928;28;20040;-78
2023/07/27 04:30:45;;;;;;;204.65;125.80;;;;;;;14.10;100.00;99480.44;5041962;28;20090;-78
2023/07/27 04:33:11;;;;;;;217.98;131.40;;;;;;;14.14;100.00;99483.53;5073829;28;20043;-78
2023/07/27 04:35:36;;;;;;;254.07;145.70;;;;;;;14.21;100.00;99500.47;5058294;28;20371;-78
2023/07/27 04:38:02;;;;;;;264.27;149.68;;;;;;;14.21;100.00;99495.91;5058442;28;20123;-78
2023/07/27 04:40:27;;;;;;;261.95;148.68;;;;;;;14.12;100.00;99491.88;5074935;28;20387;-77
2023/07/27 04:42:53;;;;;;;266.02;150.45;;;;;;;14.16;100.00;99506.59;5054430;28;20037;-78
2023/07/27 04:45:18;;;;;;;264.80;149.80;;;;;;;14.05;100.00;99489.28;5073108;28;20028;-77
2023/07/27 04:47:44;;;;;;;267.58;151.18;;;;;;;14.17;100.00;99510.09;5075273;28;20419;-78
2023/07/27 04:50:10;;;;;;;264.83;149.80;;;;;;;14.17;100.00;99507.41;5057650;28;20475;-78
2023/07/27 04:52:36;;;;;;;263.70;149.35;;;;;;;14.15;100.00;99507.63;5073680;28;20067;-78
2023/07/27 04:55:01;;;;;;;257.52;146.95;;;;;;;14.04;100.00;99495.72;5074630;28;20107;-77
2023/07/27 04:57:27;;;;;;;257.98;147.30;;;;;;;14.14;100.00;99514.09;5058058;28;20032;-78
2023/07/27 04:59:53;;;;;;;255.80;146.70;;;;;;;14.15;100.00;99504.09;5074560;28;20086;-77
2023/07/27 05:02:18;;;;;;;260.00;148.07;;;;;;;14.17;100.00;99510.09;5054204;28;20025;-77
2023/07/27 05:04:44;;;;;;;258.58;147.77;;;;;;;14.26;100.00;99522.22;5071321;28;20391;-78
2023/07/27 05:07:09;;;;;;;264.80;150.13;;;;;;;14.24;100.00;99511.66;5037598;28;20036;-78
2023/07/27 05:09:35;;;;;;;252.52;145.23;;;;;;;14.29;100.00;99516.38;5054306;28;20380;-79
2023/07/27 05:12:00;;;;;;;255.27;146.25;;;;;;;14.26;100.00;99508.72;5075047;28;20028;-77
2023/07/27 05:14:26;;;;;;;257.10;146.70;;;;;;;14.34;100.00;99527.31;5075544;28;20029;-78
2023/07/27 05:16:52;;;;;;;258.13;146.98;;;;;;;14.35;100.00;99515.44;5057580;28;20364;-77
2023/07/27 05:19:17;;;;;;;265.58;150.30;;;;;;;14.26;100.00;99497.91;5074010;28;20099;-78
2023/07/27 05:21:43;;;;;;;262.88;149.05;;;;;;;14.43;100.00;99531.34;5073249;28;20035;-77
2023/07/27 05:24:08;;;;;;;264.95;149.55;;;;;;;14.38;100.00;99516.88;5074963;28;20437;-78
2023/07/27 05:26:34;;;;;;;266.08;150.38;;;;;;;14.47;100.00;99534.41;5073703;28;20031;-78
2023/07/27 05:29:00;;;;;;;261.10;148.13;;;;;;;14.50;100.00;99542.91;5040908;28;20059;-78
2023/07/27 05:31:26;;;;;;;262.60;148.48;;;;;;;14.52;100.00;99545.34;5053521;28;20126;-78
2023/07/27 05:33:51;;;;;;;267.13;150.43;;;;;;;14.43;100.00;99525.94;5037207;28;20056;-78
2023/07/27 05:36:17;;;;;;;262.02;148.13;;;;;;;14.61;100.00;99545.91;5053993;28;20029;-78
2023/07/27 05:38:43;;;;;;;262.77;148.55;;;;;;;14.69;100.00;99553.69;5054989;28;20040;-78
2023/07/27 05:41:08;;;;;;;262.55;148.30;;;;;;;14.71;100.00;99556.94;5049323;28;20032;-77
2023/07/27 05:43:34;;;;;;;266.58;150.07;;;;;;;14.65;100.00;99541.66;5073078;28;20047;-78
2023/07/27 05:45:59;;;;;;;266.27;149.73;;;;;;;14.68;100.00;99558.25;5056722;28;20064;-78
2023/07/27 05:48:25;;;;;;;260.60;147.60;;;;;;;14.60;100.00;99553.16;5053687;28;20035;-78
2023/07/27 05:50:54;;;;;;;264.20;149.00;;;;;;;14.58;100.00;99554.44;5036640;28;20025;-78
2023/07/27 05:53:20;;;;;;;264.15;149.05;;;;;;;14.68;100.00;99560.94;5037047;28;20056;-77
2023/07/27 05:55:46;;;;;;;265.80;149.55;;;;;;;14.77;100.00;99566.88;5055755;28;20483;-77
2023/07/27 05:58:12;;;;;;;265.33;149.70;;;;;;;14.79;100.00;99556.63;5040331;28;20044;-77
2023/07/27 06:00:37;;;;;;;268.70;150.77;;;;;;;14.89;100.00;99561.47;5056795;28;20035;-77
2023/07/27 06:03:03;;;;;;;267.67;150.18;;;;;;;14.99;100.00;99558.19;5056633;28;20082;-77
2023/07/27 06:05:29;;;;;;;232.45;136.23;;;;;;;15.02;100.00;99563.94;5056557;28;20111;-78
2023/07/27 06:07:54;;;;;;;254.90;145.00;;;;;;;15.16;100.00;99556.41;5053175;28;20071;-77
2023/07/27 06:10:20;;;;;;;252.25;144.00;;;;;;;15.36;100.00;99566.91;5069957;28;20037;-77
2023/07/27 06:12:46;;;;;;;268.58;150.18;;;;;;;15.51;100.00;99559.13;5036642;28;20034;-76
2023/07/27 06:15:11;;;;;;;249.13;141.95;;;;;;;15.57;100.00;99554.63;5020857;28;20036;-77
2023/07/27 06:17:37;;;;;;;274.77;152.07;;;;;;;15.61;100.00;99559.34;5052798;28;20454;-77
2023/07/27 06:20:05;;;;;;;282.95;154.75;;;;;;;15.73;100.00;99559.34;5073009;28;20033;-77
2023/07/27 06:22:31;;;;;;;275.98;152.05;;;;;;;15.73;100.00;99563.94;5072961;28;20036;-77
2023/07/27 06:24:56;;;;;;;279.73;153.48;;;;;;;15.69;100.00;99570.88;5039877;28;20029;-77
2023/07/27 06:27:22;;;;;;;280.42;153.68;;;;;;;15.70;100.00;99567.13;5055694;28;20128;-77
2023/07/27 06:29:48;;;;;;;283.25;155.18;;;;;;;15.67;100.00;99568.41;5074051;28;20042;-77
2023/07/27 06:32:14;;;;;;;263.52;146.98;;;;;;;15.72;100.00;99565.03;5040071;28;20025;-77
2023/07/27 06:34:41;;;;;;;288.85;156.95;;;;;;;15.77;100.00;99571.38;5073710;28;20507;-80
2023/07/27 06:37:07;;;;;;;271.15;149.52;;;;;;;15.99;100.00;99568.81;5052558;28;20067;-77
2023/07/27 06:39:33;;;;;;;277.75;151.77;;;;;;;16.16;100.00;99573.47;5053319;28;20108;-77
2023/07/27 06:41:59;;;;;;;291.48;157.07;;;;;;;16.21;100.00;99579.00;5020228;28;20064;-79
2023/07/27 06:44:25;;;;;;;289.20;156.13;;;;;;;16.22;100.00;99578.78;5069154;28;20380;-78
2023/07/27 06:46:50;;;;;;;289.58;155.73;;;;;;;16.12;100.00;99554.16;5055761;28;20082;-78
2023/07/27 06:49:16;;;;;;;296.52;159.00;;;;;;;16.12;100.00;99570.44;5051203;28;20028;-81
2023/07/27 06:51:41;;;;;;;296.65;158.95;;;;;;;16.13;100.00;99568.53;5066596;28;20029;-79
2023/07/27 06:54:07;;;;;;;296.73;159.57;;;;;;;16.19;100.00;99578.41;5055934;28;20043;-79
2023/07/27 06:56:32;;;;;;;293.58;158.00;;;;;;;16.09;100.00;99581.78;5072547;28;20036;-78
2023/07/27 06:58:58;;;;;;;290.40;156.43;;;;;;;16.05;100.00;99567.84;5055943;28;20029;-80
2023/07/27 07:01:24;;;;;;;292.17;157.85;;;;;;;16.14;100.00;99573.75;5055822;28;20045;-80
2023/07/27 07:03:50;;;;;;;292.80;157.48;;;;;;;16.21;100.00;99577.13;5073213;28;20024;-80
2023/07/27 07:06:16;;;;;;;294.67;158.35;;;;;;;16.25;100.00;99572.88;5071806;28;20029;-80
2023/07/27 07:08:41;;;;;;;295.63;158.50;;;;;;;16.36;100.00;99575.78;5039228;28;20040;-79
2023/07/27 07:11:08;;;;;;;300.73;160.13;;;;;;;16.56;100.00;99576.13;5073062;28;20027;-79
2023/07/27 07:13:34;;;;;;;304.88;162.07;;;;;;;16.61;100.00;99583.53;5072351;28;20025;-79
2023/07/27 07:15:59;;;;;;;302.27;160.43;;;;;;;16.60;100.00;99568.34;5055581;28;20036;-78
2023/07/27 07:18:25;;;;;;;302.50;160.73;;;;;;;16.68;100.00;99579.63;5072159;28;20463;-79
2023/07/27 07:20:51;;;;;;;300.15;159.88;;;;;;;16.74;100.00;99585.94;5055777;28;20036;-80
2023/07/27 07:23:17;;;;;;;302.35;160.32;;;;;;;16.76;100.00;99585.72;5071856;28;20040;-78
2023/07/27 07:25:43;;;;;;;298.55;159.43;;;;;;;16.62;100.00;99577.88;5069750;28;20108;-78
2023/07/27 07:28:09;;;;;;;301.17;162.02;;;;;;;16.63;100.00;99587.66;5072242;28;20033;-78
2023/07/27 07:30:38;;;;;;;251.02;141.80;;;;;;;16.70;100.00;99593.78;5055626;28;20078;-80
2023/07/27 07:33:04;;;;;;;295.17;158.10;;;;;;;16.68;100.00;99598.63;5055480;28;20459;-79
2023/07/27 07:35:30;;;;;;;271.30;148.80;;;;;;;16.67;100.00;99591.56;5072074;28;20037;-78
2023/07/27 07:37:58;;;;;;;275.63;150.60;;;;;;;16.84;100.00;99585.34;5055495;28;20115;-77
2023/07/27 07:40:24;;;;;;;281.80;152.35;;;;;;;16.94;100.00;99590.94;5055296;28;20033;-78
2023/07/27 07:42:50;;;;;;;293.30;157.15;;;;;;;16.92;100.00;99601.22;5073100;28;20143;-78
2023/07/27 07:45:16;;;;;;;293.05;156.68;;;;;;;16.82;100.00;99612.72;5072113;28;20395;-78
2023/07/27 07:47:41;;;;;;;297.48;158.43;;;;;;;16.72;100.00;99601.66;5055248;28;20499;-77
2023/07/27 07:50:27;;;;;;;284.08;153.63;;;;;;;16.73;100.00;99616.06;5037624;28;20052;-77
2023/07/27 07:52:53;;;;;;;296.85;157.57;;;;;;;16.68;100.00;99608.66;5069629;28;20032;-77
2023/07/27 07:55:18;;;;;;;299.75;159.25;;;;;;;16.74;100.00;99606.84;5070989;28;20455;-77
2023/07/27 07:57:44;;;;;;;306.08;162.55;;;;;;;16.75;100.00;99584.91;5071915;28;20107;-77
2023/07/27 08:00:11;;;;;;;304.25;161.13;;;;;;;17.01;100.00;99602.44;5072713;28;20038;-78
2023/07/27 08:02:38;;;;;;;304.55;160.73;;;;;;;17.24;100.00;99614.22;5075916;28;20045;-77
2023/07/27 08:05:04;;;;;;;302.35;159.50;;;;;;;17.41;100.00;99620.50;5074511;28;20098;-78
2023/07/27 08:07:30;;;;;;;301.02;158.60;;;;;;;17.54;100.00;99620.16;5057865;28;20466;-78
2023/07/27 08:09:58;;;;;;;305.02;160.27;;;;;;;17.53;100.00;99623.09;5057325;28;20074;-78
2023/07/27 08:12:24;;;;;;;313.63;164.38;;;;;;;17.51;100.00;99606.22;5073244;28;20072;-80
2023/07/27 08:14:50;;;;;;;299.45;157.57;;;;;;;17.51;100.00;99620.63;5038761;28;20072;-83
2023/07/27 08:17:15;;;;;;;305.65;160.40;;;;;;;17.35;100.00;99610.59;5041639;28;20025;-79
2023/07/27 08:19:41;;;;;;;312.83;163.85;;;;;;;17.49;100.00;99614.63;5054276;28;20132;-82
2023/07/27 08:22:07;;;;;;;306.90;160.57;;;;;;;17.69;100.00;99621.44;5052864;28;20079;-81
2023/07/27 08:24:32;;;;;;;310.60;161.50;;;;;;;17.80;100.00;99620.53;5054382;28;20065;-82
2023/07/27 08:26:59;;;;;;;303.70;159.48;;;;;;;18.00;100.00;99620.78;5072975;28;20028;-82
2023/07/27 08:29:25;;;;;;;304.45;159.88;;;;;;;18.06;100.00;99621.69;5072441;28;20132;-81
2023/07/27 08:31:51;;;;;;;297.90;156.63;;;;;;;18.02;100.00;99626.00;5073603;28;20036;-82
2023/07/27 08:34:16;;;;;;;302.15;158.00;;;;;;;17.97;100.00;99623.22;5058287;28;20082;-82
2023/07/27 08:36:42;;;;;;;298.13;156.70;;;;;;;18.07;100.00;99617.88;5040636;28;20032;-82
2023/07/27 08:39:08;;;;;;;307.40;160.20;;;;;;;18.26;100.00;99631.16;5075362;28;20043;-82
2023/07/27 08:41:34;;;;;;;302.00;157.77;;;;;;;18.41;100.00;99615.00;5054445;28;20033;-82
2023/07/27 08:44:01;;;;;;;302.90;157.93;;;;;;;18.60;100.00;99626.38;5054756;28;20071;-82
2023/07/27 08:46:29;;;;;;;300.40;156.88;;;;;;;18.61;100.00;99617.13;5033774;28;20033;-82
2023/07/27 08:48:56;;;;;;;306.65;159.25;;;;;;;18.55;100.00;99627.16;5040965;28;20040;-82
2023/07/27 08:51:21;;;;;;;301.13;157.25;;;;;;;18.45;100.00;99630.59;5021442;28;20093;-82
2023/07/27 08:53:47;;;;;;;295.20;155.13;;;;;;;18.34;100.00;99626.09;5062352;28;20119;-81
2023/07/27 08:56:12;;;;;;;309.98;160.75;;;;;;;18.22;100.00;99631.66;5041472;28;20047;-82
2023/07/27 08:58:38;;;;;;;307.27;159.68;;;;;;;18.01;100.00;99624.34;5073952;28;20490;-82
2023/07/27 09:01:04;;;;;;;296.77;158.75;;;;;;;17.98;100.00;99643.88;5036780;28;20033;-82
2023/07/27 09:03:30;;;;;;;309.58;163.05;;;;;;;18.04;100.00;99633.88;5041145;28;20113;-81
2023/07/27 09:06:00;;;;;;;303.10;159.35;;;;;;;18.08;100.00;99641.31;5056607;28;20086;-81
2023/07/27 09:08:29;;;;;;;286.98;153.02;;;;;;;18.13;100.00;99640.56;5074183;28;20029;-80
2023/07/27 09:11:07;;;;;;;292.30;154.60;;;;;;;17.94;100.00;99621.81;5040235;28;20156;-80
2023/07/27 09:13:33;;;;;;;312.08;162.77;;;;;;;18.11;100.00;99645.41;5053710;28;20036;-81
2023/07/27 09:16:02;;;;;;;291.52;154.98;;;;;;;18.13;100.00;99654.97;5037872;28;20071;-81
2023/07/27 09:18:34;;;;;;;304.08;159.25;;;;;;;18.11;100.00;99642.69;5057400;28;20031;-80
2023/07/27 09:21:06;;;;;;;278.63;150.05;;;;;;;18.10;100.00;99665.50;5041145;28;20085;-82
2023/07/27 09:23:31;;;;;;;309.58;161.52;;;;;;;18.06;100.00;99658.94;5073215;28;20520;-81
2023/07/27 09:25:57;;;;;;;315.65;163.52;;;;;;;18.16;100.00;99659.09;5071980;28;20115;-78
2023/07/27 09:28:26;;;;;;;316.58;163.85;;;;;;;18.29;100.00;99647.00;5055743;28;20051;-78
2023/07/27 09:31:00;;;;;;;309.75;161.07;;;;;;;18.50;100.00;99670.66;5039642;28;20027;-78
2023/07/27 09:33:26;;;;;;;312.60;162.77;;;;;;;18.55;100.00;99668.00;5056046;28;20383;-80
2023/07/27 09:35:52;;;;;;;300.02;157.48;;;;;;;18.94;100.00;99651.53;5057129;28;20044;-80
2023/07/27 09:38:25;;;;;;;302.08;157.98;;;;;;;19.29;100.00;99670.13;5040739;28;20036;-81
2023/07/27 09:40:51;;;;;;;299.23;156.90;;;;;;;19.52;100.00;99655.28;5040446;28;20036;-81
2023/07/27 09:43:17;;;;;;;302.23;157.23;;;;;;;19.41;100.00;99650.03;5040710;28;20040;-81
2023/07/27 09:45:43;;;;;;;305.48;158.43;;;;;;;19.84;100.00;99673.50;5057271;28;20029;-81
2023/07/27 09:48:08;;;;;;;306.50;158.57;;;;;;;20.16;100.00;99662.53;5040469;28;20032;-81
2023/07/27 09:50:37;;;;;;;299.30;155.60;;;;;;;20.25;100.00;99656.56;5056752;28;20032;-82
2023/07/27 09:53:04;;;;;;;301.95;157.35;;;;;;;20.48;100.00;99650.63;5057173;28;20466;-81
2023/07/27 09:55:32;;;;;;;303.15;156.45;;;;;;;22.04;100.00;99678.59;5073328;28;20040;-81
2023/07/27 09:58:01;;;;;;;304.17;157.82;;;;;;;22.89;100.00;99678.53;5057177;28;20032;-82
2023/07/27 10:00:32;;;;;;;332.20;167.97;;;;;;;24.14;100.00;99653.31;5057736;28;20466;-82
2023/07/27 10:02:58;;;;;;;333.10;167.77;;;;;;;24.50;100.00;99675.66;5056751;28;20273;-81
2023/07/27 10:05:24;;;;;;;327.55;165.73;;;;;;;24.43;100.00;99690.88;5073162;28;20386;-82
2023/07/27 10:07:49;;;;;;;333.23;167.65;;;;;;;24.42;100.00;99690.03;5039927;28;20487;-82
2023/07/27 10:10:33;;;;;;;328.45;165.13;;;;;;;26.04;97.64;99692.56;5072723;28;20032;-82
2023/07/27 10:13:07;;;;;;;328.30;164.82;;;;;;;25.32;97.96;99693.75;5056530;28;20036;-83
2023/07/27 10:15:38;;;;;;;329.27;164.60;;;;;;;24.28;100.00;99673.47;5024029;28;20040;-82
2023/07/27 10:18:04;;;;;;;325.55;163.50;;;;;;;23.45;100.00;99696.53;5039753;28;20036;-81
2023/07/27 10:20:32;;;;;;;322.92;162.27;;;;;;;22.77;100.00;99706.25;5039930;28;20032;-81
2023/07/27 10:23:13;;;;;;;324.23;162.98;;;;;;;22.16;100.00;99706.50;5055879;28;20391;-81
2023/07/27 10:25:57;;;;;;;332.17;165.93;;;;;;;21.80;100.00;99698.34;5055133;28;20036;-81
2023/07/27 10:28:36;;;;;;;344.23;170.88;;;;;;;22.27;100.00;99701.84;5072605;28;20119;-80
2023/07/27 10:31:14;;;;;;;352.33;174.30;;;;;;;23.59;100.00;99680.22;5056099;28;20489;-80
2023/07/27 10:34:07;;;;;;;356.95;176.63;;;;;;;24.57;100.00;99706.38;5055450;28;20032;-80
2023/07/27 10:36:51;;;;;;;357.25;176.00;;;;;;;24.52;100.00;99706.44;5056166;28;20032;-81
2023/07/27 10:39:31;;;;;;;361.75;177.43;;;;;;;23.54;100.00;99700.28;5056752;28;20425;-80
2023/07/27 10:42:00;;;;;;;355.63;175.05;;;;;;;22.59;100.00;99698.69;5072283;28;20075;-81
2023/07/27 10:44:42;;;;;;;367.42;179.80;;;;;;;21.80;100.00;99690.13;5039770;28;20040;-81
2023/07/27 10:47:08;;;;;;;383.67;186.32;;;;;;;21.56;100.00;99700.03;5055795;28;20033;-81
2023/07/27 10:49:42;;;;;;;384.05;186.63;;;;;;;21.59;100.00;99713.13;5055827;28;20048;-81
2023/07/27 10:52:09;;;;;;;380.23;184.73;;;;;;;21.58;100.00;99715.06;5055648;28;20040;-81
2023/07/27 10:54:39;;;;;;;385.25;187.07;;;;;;;22.08;100.00;99701.59;5039254;28;20420;-81
2023/07/27 10:57:10;;;;;;;391.98;189.05;;;;;;;22.23;100.00;99698.84;5055925;28;20041;-80